Megargel, AL (36457)

9:12 AM CDT on May 24, 2015 (GMT -0500)
HADS | | Change Station
CLOSE
Current Station
Personal Weather Station
Location: Monroeville, AL
Elevation: 129 ft
Nearby Weather Stations

Elev 129 ft 31.46 °N, 87.35 °W | Updated 42 minutes ago

Mostly Cloudy
Mostly Cloudy
78 °F
Feels Like 80 °F
N
10
Wind Variable Wind from ENE
Gusts 0.0 mph

Today
High -- | Low -- °F
--% Chance of Precip.
Yesterday
High -- | Low -- °F
Precip. -- in
5:48 AM 7:44 PM
Waxing Crescent, 39% visible
Pressure 30.21 in
Visibility 10.0 miles
Clouds Mostly Cloudy 1500 ft
Mostly Cloudy 2300 ft
Overcast 7000 ft
Heat Index 80 °F
Dew Point 70 °F
Humidity 75%
Rainfall in
Snow Depth Not available.
UV 2 out of 12
Pollen 4.50 out of 12
Air Quality Not available.
Flu Activity Sporadic
METAR KGZH 241353Z AUTO 12008KT 10SM BKN015 BKN023 OVC070 25/21 A3022 RMK AO2 SLP229 T02500206

More Conditions Fewer Conditions

Pressure 30.21 in
Visibility 10.0 miles
Clouds Mostly Cloudy 1500 ft
Mostly Cloudy 2300 ft
Overcast 7000 ft
Heat Index 80 °F
Dew Point 70 °F
Humidity 75%
Rainfall in
Snow Depth Not available.
UV 2 out of 12
Pollen 4.50 out of 12
Air Quality Not available.
Flu Activity Sporadic
METAR KGZH 241353Z AUTO 12008KT 10SM BKN015 BKN023 OVC070 25/21 A3022 RMK AO2 SLP229 T02500206

More Conditions Fewer Conditions

10-Day Weather Forecast

Almanac

Astronomy

May. 24, 2015 Rise Set
Actual Time
Civil Twilight
Nautical Twilight
Astronomical Twilight
Moon
Length of Visible Light
Length of Day
Tomorrow will be .
, % of the Moon is Illuminated

Today's Extremes

State Highs State Lows

Community

WunderPhotos

Upload Photos

1,823,745 photos uploaded!

WunderBlogs® & News

Nearby

Air Quality

  Air Quality AQ Index Pollutant
Not available.

Snow Depth

Station Depth Elevation

Earthquake Activity

City Distance Mag. Time & Date
Minimum magnitude displayed is 2.5.

Coastal Water Temperatures

Place Temperature

Stations

Nearby Weather Stations

Station Location Temp. Windchill Dew Point Humidity Wind Precip. Elev Updated Type